N312YH KSAN-KSAN
Flight info
| Callsign | N312YH |
|---|---|
| Flight time | 0h 32m |
| Altitude | VFR |
| Route | VFR |
| Aircraft | C127/L-VGD/C |
Departure
| Time | 2026-05-04 01:43 |
|---|---|
| Airport | San Diego International Airport (KSAN) |
Arrival
| Time | 2026-05-04 02:15 |
|---|---|
| Airport | San Diego International Airport (KSAN) |
| Time | Latitude | Longitude | Altitude | Speed | Heading |
|---|---|---|---|---|---|
| 2026-05-04 01:35 | 32.73339 | -117.17874 | 19 ft | 0 kts | 185° |
| 2026-05-04 01:36 | 32.73339 | -117.17875 | 19 ft | 0 kts | 191° |
| 2026-05-04 01:36 | 32.73334 | -117.17888 | 19 ft | 4 kts | 291° |
| 2026-05-04 01:37 | 32.73343 | -117.17950 | 21 ft | 9 kts | 236° |
| 2026-05-04 01:37 | 32.73287 | -117.17974 | 19 ft | 8 kts | 195° |
| 2026-05-04 01:37 | 32.73234 | -117.17970 | 17 ft | 9 kts | 132° |
| 2026-05-04 01:37 | 32.73213 | -117.17904 | 16 ft | 8 kts | 107° |
| 2026-05-04 01:38 | 32.73199 | -117.17845 | 17 ft | 8 kts | 105° |
| 2026-05-04 01:38 | 32.73177 | -117.17755 | 18 ft | 16 kts | 105° |
| 2026-05-04 01:38 | 32.73144 | -117.17618 | 17 ft | 14 kts | 105° |
| 2026-05-04 01:38 | 32.73093 | -117.17551 | 17 ft | 0 kts | 145° |
| 2026-05-04 01:41 | 32.73090 | -117.17549 | 17 ft | 3 kts | 143° |
| 2026-05-04 01:41 | 32.73036 | -117.17531 | 18 ft | 13 kts | 202° |
| 2026-05-04 01:41 | 32.73040 | -117.17667 | 16 ft | 32 kts | 286° |
| 2026-05-04 01:42 | 32.73143 | -117.18101 | 40 ft | 71 kts | 287° |
| 2026-05-04 01:42 | 32.73291 | -117.18721 | 156 ft | 82 kts | 288° |
| 2026-05-04 01:42 | 32.73452 | -117.19372 | 282 ft | 82 kts | 285° |
| 2026-05-04 01:42 | 32.73629 | -117.20003 | 484 ft | 80 kts | 290° |
| 2026-05-04 01:43 | 32.73828 | -117.20626 | 649 ft | 80 kts | 288° |
| 2026-05-04 01:43 | 32.74016 | -117.21238 | 866 ft | 79 kts | 301° |
| 2026-05-04 01:43 | 32.74473 | -117.21612 | 1067 ft | 85 kts | 338° |
| 2026-05-04 01:43 | 32.75070 | -117.21643 | 1242 ft | 89 kts | 4° |
| 2026-05-04 01:44 | 32.75681 | -117.21439 | 1341 ft | 94 kts | 14° |
| 2026-05-04 01:44 | 32.76199 | -117.20926 | 1474 ft | 102 kts | 56° |
| 2026-05-04 01:44 | 32.76336 | -117.20089 | 1566 ft | 109 kts | 98° |
| 2026-05-04 01:44 | 32.76182 | -117.19209 | 1613 ft | 113 kts | 104° |
| 2026-05-04 01:45 | 32.76008 | -117.18284 | 1630 ft | 115 kts | 103° |
| 2026-05-04 01:45 | 32.75826 | -117.17330 | 1588 ft | 121 kts | 104° |
| 2026-05-04 01:45 | 32.75386 | -117.15395 | 1468 ft | 123 kts | 109° |
| 2026-05-04 01:46 | 32.75156 | -117.14427 | 1498 ft | 120 kts | 105° |
| 2026-05-04 01:46 | 32.74972 | -117.13456 | 1497 ft | 120 kts | 104° |
| 2026-05-04 01:46 | 32.74800 | -117.12493 | 1508 ft | 119 kts | 104° |
| 2026-05-04 01:46 | 32.74608 | -117.11525 | 1508 ft | 121 kts | 106° |
| 2026-05-04 01:47 | 32.74423 | -117.10553 | 1515 ft | 121 kts | 105° |
| 2026-05-04 01:47 | 32.74296 | -117.09903 | 1500 ft | 122 kts | 105° |
| 2026-05-04 01:47 | 32.74035 | -117.08960 | 1511 ft | 114 kts | 128° |
| 2026-05-04 01:47 | 32.73417 | -117.08505 | 1488 ft | 103 kts | 182° |
| 2026-05-04 01:48 | 32.72740 | -117.08659 | 1396 ft | 104 kts | 204° |
| 2026-05-04 01:48 | 32.72049 | -117.08930 | 1339 ft | 103 kts | 202° |
| 2026-05-04 01:48 | 32.71356 | -117.09190 | 1234 ft | 106 kts | 205° |
| 2026-05-04 01:48 | 32.70736 | -117.09560 | 1199 ft | 97 kts | 232° |
| 2026-05-04 01:49 | 32.70588 | -117.10295 | 1122 ft | 96 kts | 282° |
| 2026-05-04 01:49 | 32.70854 | -117.11041 | 1057 ft | 98 kts | 292° |
| 2026-05-04 01:49 | 32.71210 | -117.11732 | 1054 ft | 98 kts | 302° |
| 2026-05-04 01:49 | 32.71588 | -117.12387 | 1042 ft | 95 kts | 300° |
| 2026-05-04 01:50 | 32.71885 | -117.13083 | 873 ft | 92 kts | 290° |
| 2026-05-04 01:50 | 32.72087 | -117.13749 | 807 ft | 81 kts | 287° |
| 2026-05-04 01:50 | 32.72229 | -117.14383 | 775 ft | 79 kts | 285° |
| 2026-05-04 01:50 | 32.72385 | -117.14991 | 708 ft | 78 kts | 286° |
| 2026-05-04 01:51 | 32.72535 | -117.15614 | 545 ft | 78 kts | 285° |
| 2026-05-04 01:51 | 32.72678 | -117.16202 | 389 ft | 70 kts | 286° |
| 2026-05-04 01:51 | 32.72810 | -117.16749 | 283 ft | 68 kts | 286° |
| 2026-05-04 01:51 | 32.72946 | -117.17284 | 198 ft | 67 kts | 287° |
| 2026-05-04 01:52 | 32.73072 | -117.17814 | 88 ft | 65 kts | 287° |
| 2026-05-04 01:52 | 32.73192 | -117.18293 | 19 ft | 50 kts | 285° |
| 2026-05-04 01:52 | 32.73298 | -117.18733 | 25 ft | 72 kts | 285° |
| 2026-05-04 01:52 | 32.73448 | -117.19341 | 198 ft | 80 kts | 285° |
| 2026-05-04 01:53 | 32.73587 | -117.20003 | 343 ft | 86 kts | 287° |
| 2026-05-04 01:53 | 32.73772 | -117.20672 | 551 ft | 86 kts | 289° |
| 2026-05-04 01:53 | 32.74023 | -117.21303 | 739 ft | 86 kts | 308° |
| 2026-05-04 01:53 | 32.74549 | -117.21654 | 962 ft | 93 kts | 342° |
| 2026-05-04 01:54 | 32.75208 | -117.21613 | 1213 ft | 97 kts | 8° |
| 2026-05-04 01:54 | 32.75835 | -117.21331 | 1422 ft | 98 kts | 34° |
| 2026-05-04 01:54 | 32.76186 | -117.20644 | 1519 ft | 103 kts | 77° |
| 2026-05-04 01:54 | 32.76115 | -117.19782 | 1568 ft | 108 kts | 105° |
| 2026-05-04 01:55 | 32.75903 | -117.18898 | 1559 ft | 114 kts | 110° |
| 2026-05-04 01:55 | 32.75686 | -117.17965 | 1521 ft | 117 kts | 107° |
| 2026-05-04 01:55 | 32.75466 | -117.17031 | 1517 ft | 116 kts | 108° |
| 2026-05-04 01:55 | 32.75216 | -117.16147 | 1439 ft | 107 kts | 117° |
| 2026-05-04 01:56 | 32.74693 | -117.15609 | 1336 ft | 98 kts | 171° |
| 2026-05-04 01:56 | 32.74032 | -117.15665 | 1142 ft | 96 kts | 200° |
| 2026-05-04 01:56 | 32.73414 | -117.15875 | 912 ft | 89 kts | 217° |
| 2026-05-04 01:56 | 32.73061 | -117.16437 | 625 ft | 86 kts | 252° |
| 2026-05-04 01:57 | 32.72954 | -117.17163 | 319 ft | 92 kts | 275° |
| 2026-05-04 01:57 | 32.73090 | -117.17876 | 92 ft | 82 kts | 286° |
| 2026-05-04 01:57 | 32.73226 | -117.18432 | 14 ft | 55 kts | 288° |
| 2026-05-04 01:57 | 32.73324 | -117.18838 | 11 ft | 64 kts | 287° |
| 2026-05-04 01:58 | 32.73467 | -117.19422 | 142 ft | 80 kts | 287° |
| 2026-05-04 01:58 | 32.73629 | -117.20063 | 349 ft | 83 kts | 287° |
| 2026-05-04 01:58 | 32.73796 | -117.20712 | 585 ft | 81 kts | 289° |
| 2026-05-04 01:58 | 32.74002 | -117.21324 | 847 ft | 81 kts | 302° |
| 2026-05-04 01:59 | 32.74470 | -117.21712 | 1080 ft | 88 kts | 338° |
| 2026-05-04 01:59 | 32.75112 | -117.21681 | 1249 ft | 99 kts | 11° |
| 2026-05-04 01:59 | 32.75777 | -117.21448 | 1447 ft | 97 kts | 12° |
| 2026-05-04 01:59 | 32.76303 | -117.20953 | 1525 ft | 106 kts | 60° |
| 2026-05-04 02:00 | 32.76394 | -117.20053 | 1557 ft | 113 kts | 103° |
| 2026-05-04 02:00 | 32.76186 | -117.19133 | 1554 ft | 118 kts | 106° |
| 2026-05-04 02:00 | 32.75930 | -117.18190 | 1549 ft | 123 kts | 110° |
| 2026-05-04 02:00 | 32.75644 | -117.17234 | 1528 ft | 122 kts | 110° |
| 2026-05-04 02:01 | 32.75383 | -117.16293 | 1429 ft | 116 kts | 109° |
| 2026-05-04 02:01 | 32.75087 | -117.15447 | 1297 ft | 108 kts | 133° |
| 2026-05-04 02:01 | 32.74482 | -117.15031 | 1186 ft | 97 kts | 176° |
| 2026-05-04 02:01 | 32.73832 | -117.15100 | 1064 ft | 94 kts | 199° |
| 2026-05-04 02:02 | 32.73188 | -117.15309 | 879 ft | 99 kts | 206° |
| 2026-05-04 02:02 | 32.72657 | -117.15740 | 666 ft | 93 kts | 265° |
| 2026-05-04 02:02 | 32.72767 | -117.16516 | 461 ft | 97 kts | 284° |
| 2026-05-04 02:02 | 32.72948 | -117.17273 | 265 ft | 93 kts | 286° |
| 2026-05-04 02:03 | 32.73114 | -117.17975 | 74 ft | 82 kts | 286° |
| 2026-05-04 02:03 | 32.73251 | -117.18539 | 12 ft | 59 kts | 288° |
| 2026-05-04 02:03 | 32.73347 | -117.18936 | 20 ft | 54 kts | 287° |
| 2026-05-04 02:03 | 32.73478 | -117.19477 | 121 ft | 75 kts | 286° |
| 2026-05-04 02:04 | 32.73628 | -117.20089 | 335 ft | 79 kts | 286° |
| 2026-05-04 02:04 | 32.73767 | -117.20723 | 556 ft | 79 kts | 285° |
| 2026-05-04 02:04 | 32.73929 | -117.21351 | 815 ft | 80 kts | 300° |
| 2026-05-04 02:04 | 32.74393 | -117.21726 | 1051 ft | 89 kts | 344° |
| 2026-05-04 02:05 | 32.75049 | -117.21624 | 1227 ft | 99 kts | 9° |
| 2026-05-04 02:05 | 32.75713 | -117.21407 | 1414 ft | 97 kts | 15° |
| 2026-05-04 02:05 | 32.76236 | -117.20881 | 1482 ft | 107 kts | 59° |
| 2026-05-04 02:05 | 32.76338 | -117.19989 | 1512 ft | 112 kts | 102° |
| 2026-05-04 02:06 | 32.76152 | -117.19065 | 1516 ft | 118 kts | 105° |
| 2026-05-04 02:06 | 32.75917 | -117.18103 | 1486 ft | 122 kts | 107° |
| 2026-05-04 02:06 | 32.75659 | -117.17129 | 1457 ft | 122 kts | 110° |
| 2026-05-04 02:06 | 32.75380 | -117.16176 | 1433 ft | 121 kts | 110° |
| 2026-05-04 02:07 | 32.75116 | -117.15252 | 1367 ft | 115 kts | 110° |
| 2026-05-04 02:07 | 32.74722 | -117.14481 | 1258 ft | 107 kts | 150° |
| 2026-05-04 02:07 | 32.74056 | -117.14308 | 1126 ft | 97 kts | 198° |
| 2026-05-04 02:07 | 32.73423 | -117.14603 | 959 ft | 98 kts | 206° |
| 2026-05-04 02:08 | 32.72868 | -117.15036 | 751 ft | 98 kts | 240° |
| 2026-05-04 02:08 | 32.72733 | -117.15804 | 541 ft | 95 kts | 272° |
| 2026-05-04 02:08 | 32.72786 | -117.16567 | 410 ft | 91 kts | 283° |
| 2026-05-04 02:08 | 32.72940 | -117.17261 | 243 ft | 81 kts | 285° |
| 2026-05-04 02:09 | 32.73090 | -117.17867 | 81 ft | 73 kts | 284° |
| 2026-05-04 02:09 | 32.73214 | -117.18383 | 19 ft | 53 kts | 287° |
| 2026-05-04 02:09 | 32.73318 | -117.18810 | 20 ft | 69 kts | 286° |
| 2026-05-04 02:09 | 32.73461 | -117.19420 | 166 ft | 81 kts | 286° |
| 2026-05-04 02:10 | 32.73626 | -117.20078 | 374 ft | 83 kts | 286° |
| 2026-05-04 02:10 | 32.73804 | -117.20723 | 604 ft | 82 kts | 289° |
| 2026-05-04 02:10 | 32.74010 | -117.21341 | 841 ft | 81 kts | 306° |
| 2026-05-04 02:10 | 32.74493 | -117.21711 | 1061 ft | 88 kts | 340° |
| 2026-05-04 02:11 | 32.75130 | -117.21704 | 1218 ft | 98 kts | 9° |
| 2026-05-04 02:11 | 32.75785 | -117.21492 | 1433 ft | 97 kts | 10° |
| 2026-05-04 02:11 | 32.76424 | -117.21231 | 1505 ft | 103 kts | 34° |
| 2026-05-04 02:11 | 32.76738 | -117.20479 | 1580 ft | 107 kts | 90° |
| 2026-05-04 02:12 | 32.76505 | -117.19627 | 1538 ft | 110 kts | 115° |
| 2026-05-04 02:12 | 32.76242 | -117.18776 | 1532 ft | 110 kts | 110° |
| 2026-05-04 02:12 | 32.75971 | -117.17919 | 1512 ft | 110 kts | 112° |
| 2026-05-04 02:12 | 32.75716 | -117.17058 | 1519 ft | 111 kts | 109° |
| 2026-05-04 02:13 | 32.75472 | -117.16186 | 1498 ft | 113 kts | 110° |
| 2026-05-04 02:13 | 32.75206 | -117.15321 | 1445 ft | 108 kts | 114° |
| 2026-05-04 02:13 | 32.74804 | -117.14665 | 1344 ft | 94 kts | 155° |
| 2026-05-04 02:13 | 32.74205 | -117.14598 | 1181 ft | 86 kts | 198° |
| 2026-05-04 02:14 | 32.73626 | -117.14766 | 1031 ft | 86 kts | 203° |
| 2026-05-04 02:14 | 32.73076 | -117.15015 | 864 ft | 83 kts | 225° |
| 2026-05-04 02:14 | 32.72846 | -117.15624 | 679 ft | 82 kts | 263° |
| 2026-05-04 02:14 | 32.72800 | -117.16289 | 491 ft | 81 kts | 273° |
| 2026-05-04 02:15 | 32.72866 | -117.16933 | 330 ft | 80 kts | 284° |
| 2026-05-04 02:15 | 32.73008 | -117.17545 | 156 ft | 74 kts | 286° |
| 2026-05-04 02:15 | 32.73139 | -117.18095 | 48 ft | 65 kts | 287° |
| 2026-05-04 02:15 | 32.73248 | -117.18522 | 19 ft | 40 kts | 286° |
| 2026-05-04 02:16 | 32.73303 | -117.18744 | 18 ft | 13 kts | 291° |
| 2026-05-04 02:16 | 32.73358 | -117.18809 | 17 ft | 11 kts | 347° |
| 2026-05-04 02:16 | 32.73399 | -117.18809 | 17 ft | 0 kts | 18° |
| 2026-05-04 02:17 | 32.73418 | -117.18760 | 16 ft | 15 kts | 93° |
| 2026-05-04 02:17 | 32.73377 | -117.18579 | 19 ft | 29 kts | 108° |
| 2026-05-04 02:18 | 32.73325 | -117.18366 | 19 ft | 26 kts | 105° |
| 2026-05-04 02:18 | 32.73278 | -117.18173 | 18 ft | 23 kts | 106° |
| 2026-05-04 02:18 | 32.73244 | -117.18025 | 17 ft | 11 kts | 97° |
| 2026-05-04 02:18 | 32.73285 | -117.17976 | 19 ft | 7 kts | 13° |
| 2026-05-04 02:19 | 32.73330 | -117.17960 | 20 ft | 8 kts | 16° |
| 2026-05-04 02:19 | 32.73396 | -117.17956 | 21 ft | 10 kts | 317° |
| 2026-05-04 02:19 | 32.73429 | -117.17955 | 21 ft | 3 kts | 116° |